sensor_id;sensor_type;location;lat;lon;timestamp;P1;durP1;ratioP1;P2;durP2;ratioP2
52866;SDS011;38739;53.324;6.862;2023-07-22T00:02:21;11.30;;;5.70;;
52866;SDS011;38739;53.324;6.862;2023-07-22T00:04:48;13.73;;;6.35;;
52866;SDS011;38739;53.324;6.862;2023-07-22T00:07:14;10.32;;;5.35;;
52866;SDS011;38739;53.324;6.862;2023-07-22T00:09:40;9.70;;;4.75;;
52866;SDS011;38739;53.324;6.862;2023-07-22T00:12:07;8.10;;;4.78;;
52866;SDS011;38739;53.324;6.862;2023-07-22T00:14:33;8.52;;;4.32;;
52866;SDS011;38739;53.324;6.862;2023-07-22T00:17:01;7.82;;;4.10;;
52866;SDS011;38739;53.324;6.862;2023-07-22T00:19:27;10.00;;;4.82;;
52866;SDS011;38739;53.324;6.862;2023-07-22T00:21:52;9.80;;;5.20;;
52866;SDS011;38739;53.324;6.862;2023-07-22T00:24:18;11.90;;;5.20;;
52866;SDS011;38739;53.324;6.862;2023-07-22T00:26:44;10.77;;;5.43;;
52866;SDS011;38739;53.324;6.862;2023-07-22T00:29:09;11.95;;;6.15;;
52866;SDS011;38739;53.324;6.862;2023-07-22T00:31:35;12.25;;;5.95;;
52866;SDS011;38739;53.324;6.862;2023-07-22T00:34:01;11.45;;;5.70;;
52866;SDS011;38739;53.324;6.862;2023-07-22T00:36:26;13.93;;;5.70;;
52866;SDS011;38739;53.324;6.862;2023-07-22T00:38:52;11.07;;;5.55;;
52866;SDS011;38739;53.324;6.862;2023-07-22T00:41:18;12.18;;;5.65;;
52866;SDS011;38739;53.324;6.862;2023-07-22T00:43:44;12.32;;;5.53;;
52866;SDS011;38739;53.324;6.862;2023-07-22T00:46:09;11.75;;;5.53;;
52866;SDS011;38739;53.324;6.862;2023-07-22T00:48:35;10.13;;;5.88;;
52866;SDS011;38739;53.324;6.862;2023-07-22T00:51:02;12.20;;;5.93;;
52866;SDS011;38739;53.324;6.862;2023-07-22T00:53:28;10.52;;;5.82;;
52866;SDS011;38739;53.324;6.862;2023-07-22T00:55:54;15.55;;;6.00;;
52866;SDS011;38739;53.324;6.862;2023-07-22T00:58:20;8.95;;;5.80;;
52866;SDS011;38739;53.324;6.862;2023-07-22T01:00:46;12.60;;;6.20;;
52866;SDS011;38739;53.324;6.862;2023-07-22T01:03:13;13.93;;;5.82;;
52866;SDS011;38739;53.324;6.862;2023-07-22T01:05:39;10.18;;;5.75;;
52866;SDS011;38739;53.324;6.862;2023-07-22T01:08:06;10.60;;;5.40;;
52866;SDS011;38739;53.324;6.862;2023-07-22T01:10:32;10.23;;;5.50;;
52866;SDS011;38739;53.324;6.862;2023-07-22T01:12:58;9.27;;;5.18;;
52866;SDS011;38739;53.324;6.862;2023-07-22T01:15:24;10.45;;;5.30;;
52866;SDS011;38739;53.324;6.862;2023-07-22T01:17:50;11.02;;;5.07;;
52866;SDS011;38739;53.324;6.862;2023-07-22T01:20:16;9.40;;;5.22;;
52866;SDS011;38739;53.324;6.862;2023-07-22T01:22:53;9.48;;;4.85;;
52866;SDS011;38739;53.324;6.862;2023-07-22T01:25:22;8.13;;;4.40;;
52866;SDS011;38739;53.324;6.862;2023-07-22T01:27:50;8.60;;;4.88;;
52866;SDS011;38739;53.324;6.862;2023-07-22T01:30:16;10.45;;;4.72;;
52866;SDS011;38739;53.324;6.862;2023-07-22T01:32:43;11.10;;;4.85;;
52866;SDS011;38739;53.324;6.862;2023-07-22T01:35:09;8.98;;;4.78;;
52866;SDS011;38739;53.324;6.862;2023-07-22T01:37:35;9.98;;;4.78;;
52866;SDS011;38739;53.324;6.862;2023-07-22T01:40:00;10.13;;;4.93;;
52866;SDS011;38739;53.324;6.862;2023-07-22T01:42:36;10.95;;;4.88;;
52866;SDS011;38739;53.324;6.862;2023-07-22T01:45:01;10.25;;;4.95;;
52866;SDS011;38739;53.324;6.862;2023-07-22T01:47:27;9.60;;;5.00;;
52866;SDS011;38739;53.324;6.862;2023-07-22T01:49:53;9.30;;;4.50;;
52866;SDS011;38739;53.324;6.862;2023-07-22T01:52:19;8.95;;;4.95;;
52866;SDS011;38739;53.324;6.862;2023-07-22T01:54:45;12.43;;;4.70;;
52866;SDS011;38739;53.324;6.862;2023-07-22T01:57:10;8.52;;;4.70;;
52866;SDS011;38739;53.324;6.862;2023-07-22T01:59:36;10.38;;;4.40;;
52866;SDS011;38739;53.324;6.862;2023-07-22T02:02:02;7.80;;;4.30;;
52866;SDS011;38739;53.324;6.862;2023-07-22T02:04:27;9.85;;;4.20;;
52866;SDS011;38739;53.324;6.862;2023-07-22T02:06:53;9.13;;;4.40;;
52866;SDS011;38739;53.324;6.862;2023-07-22T02:09:19;7.25;;;4.28;;
52866;SDS011;38739;53.324;6.862;2023-07-22T02:11:44;13.30;;;4.53;;
52866;SDS011;38739;53.324;6.862;2023-07-22T02:14:10;7.00;;;3.90;;
52866;SDS011;38739;53.324;6.862;2023-07-22T02:16:36;14.50;;;4.85;;
52866;SDS011;38739;53.324;6.862;2023-07-22T02:19:02;11.45;;;4.78;;
52866;SDS011;38739;53.324;6.862;2023-07-22T02:21:28;8.60;;;4.32;;
52866;SDS011;38739;53.324;6.862;2023-07-22T02:23:54;8.20;;;4.97;;
52866;SDS011;38739;53.324;6.862;2023-07-22T02:26:20;11.55;;;5.53;;
52866;SDS011;38739;53.324;6.862;2023-07-22T02:28:45;11.75;;;5.32;;
52866;SDS011;38739;53.324;6.862;2023-07-22T02:31:11;14.15;;;5.45;;
52866;SDS011;38739;53.324;6.862;2023-07-22T02:33:37;13.82;;;5.53;;
52866;SDS011;38739;53.324;6.862;2023-07-22T02:36:03;9.35;;;5.43;;
52866;SDS011;38739;53.324;6.862;2023-07-22T02:38:29;11.77;;;6.00;;
52866;SDS011;38739;53.324;6.862;2023-07-22T02:40:55;12.13;;;6.13;;
52866;SDS011;38739;53.324;6.862;2023-07-22T02:43:27;12.27;;;5.55;;
52866;SDS011;38739;53.324;6.862;2023-07-22T02:45:53;11.77;;;5.95;;
52866;SDS011;38739;53.324;6.862;2023-07-22T02:48:19;11.98;;;5.93;;
52866;SDS011;38739;53.324;6.862;2023-07-22T02:50:44;12.02;;;5.80;;
52866;SDS011;38739;53.324;6.862;2023-07-22T02:53:11;10.82;;;5.63;;
52866;SDS011;38739;53.324;6.862;2023-07-22T02:55:36;9.93;;;5.72;;
52866;SDS011;38739;53.324;6.862;2023-07-22T02:58:02;9.20;;;5.15;;
52866;SDS011;38739;53.324;6.862;2023-07-22T03:00:28;10.48;;;6.30;;
52866;SDS011;38739;53.324;6.862;2023-07-22T03:02:54;13.88;;;5.88;;
52866;SDS011;38739;53.324;6.862;2023-07-22T03:05:25;12.40;;;6.05;;
52866;SDS011;38739;53.324;6.862;2023-07-22T03:07:53;12.40;;;6.15;;
52866;SDS011;38739;53.324;6.862;2023-07-22T03:10:19;12.45;;;6.13;;
52866;SDS011;38739;53.324;6.862;2023-07-22T03:12:44;11.63;;;5.45;;
52866;SDS011;38739;53.324;6.862;2023-07-22T03:15:10;10.15;;;5.88;;
52866;SDS011;38739;53.324;6.862;2023-07-22T03:17:38;11.15;;;5.95;;
52866;SDS011;38739;53.324;6.862;2023-07-22T03:20:04;10.73;;;5.57;;
52866;SDS011;38739;53.324;6.862;2023-07-22T03:22:39;13.63;;;5.75;;
52866;SDS011;38739;53.324;6.862;2023-07-22T03:25:09;14.02;;;6.68;;
52866;SDS011;38739;53.324;6.862;2023-07-22T03:27:35;12.95;;;5.82;;
52866;SDS011;38739;53.324;6.862;2023-07-22T03:30:02;11.20;;;6.13;;
52866;SDS011;38739;53.324;6.862;2023-07-22T03:32:29;10.60;;;5.68;;
52866;SDS011;38739;53.324;6.862;2023-07-22T03:34:54;13.02;;;6.00;;
52866;SDS011;38739;53.324;6.862;2023-07-22T03:37:20;13.48;;;6.28;;
52866;SDS011;38739;53.324;6.862;2023-07-22T03:39:46;11.75;;;6.03;;
52866;SDS011;38739;53.324;6.862;2023-07-22T03:42:11;12.50;;;5.97;;
52866;SDS011;38739;53.324;6.862;2023-07-22T03:44:37;12.30;;;5.93;;
52866;SDS011;38739;53.324;6.862;2023-07-22T03:47:03;12.75;;;5.50;;
52866;SDS011;38739;53.324;6.862;2023-07-22T03:49:29;16.25;;;6.05;;
52866;SDS011;38739;53.324;6.862;2023-07-22T03:51:55;13.75;;;5.80;;
52866;SDS011;38739;53.324;6.862;2023-07-22T03:54:20;9.93;;;5.70;;
52866;SDS011;38739;53.324;6.862;2023-07-22T03:56:46;12.07;;;5.95;;
52866;SDS011;38739;53.324;6.862;2023-07-22T03:59:11;14.60;;;5.63;;
52866;SDS011;38739;53.324;6.862;2023-07-22T04:01:37;13.45;;;5.28;;
52866;SDS011;38739;53.324;6.862;2023-07-22T04:04:03;10.80;;;5.97;;
52866;SDS011;38739;53.324;6.862;2023-07-22T04:06:29;11.15;;;5.43;;
52866;SDS011;38739;53.324;6.862;2023-07-22T04:08:55;12.13;;;5.90;;
52866;SDS011;38739;53.324;6.862;2023-07-22T04:11:21;12.45;;;5.28;;
52866;SDS011;38739;53.324;6.862;2023-07-22T04:13:47;11.27;;;6.05;;
52866;SDS011;38739;53.324;6.862;2023-07-22T04:16:14;13.52;;;5.95;;
52866;SDS011;38739;53.324;6.862;2023-07-22T04:18:39;11.38;;;5.50;;
52866;SDS011;38739;53.324;6.862;2023-07-22T04:21:05;13.82;;;6.10;;
52866;SDS011;38739;53.324;6.862;2023-07-22T04:23:31;10.65;;;5.38;;
52866;SDS011;38739;53.324;6.862;2023-07-22T04:25:58;15.60;;;6.03;;
52866;SDS011;38739;53.324;6.862;2023-07-22T04:28:26;10.88;;;5.63;;
52866;SDS011;38739;53.324;6.862;2023-07-22T04:30:56;10.10;;;5.28;;
52866;SDS011;38739;53.324;6.862;2023-07-22T04:33:24;10.60;;;5.18;;
52866;SDS011;38739;53.324;6.862;2023-07-22T04:35:52;11.52;;;4.95;;
52866;SDS011;38739;53.324;6.862;2023-07-22T04:38:22;13.35;;;5.35;;
52866;SDS011;38739;53.324;6.862;2023-07-22T04:40:48;13.95;;;6.43;;
52866;SDS011;38739;53.324;6.862;2023-07-22T04:43:13;12.10;;;6.13;;
52866;SDS011;38739;53.324;6.862;2023-07-22T04:45:39;12.02;;;6.10;;
52866;SDS011;38739;53.324;6.862;2023-07-22T04:48:05;13.70;;;6.03;;
52866;SDS011;38739;53.324;6.862;2023-07-22T04:50:32;15.40;;;6.13;;
52866;SDS011;38739;53.324;6.862;2023-07-22T04:52:58;10.25;;;5.80;;
52866;SDS011;38739;53.324;6.862;2023-07-22T04:55:24;14.05;;;5.50;;
52866;SDS011;38739;53.324;6.862;2023-07-22T04:57:51;14.40;;;6.15;;
52866;SDS011;38739;53.324;6.862;2023-07-22T05:00:17;11.10;;;4.90;;
52866;SDS011;38739;53.324;6.862;2023-07-22T05:02:44;14.18;;;5.53;;
52866;SDS011;38739;53.324;6.862;2023-07-22T05:05:18;13.18;;;5.47;;
52866;SDS011;38739;53.324;6.862;2023-07-22T05:07:43;9.23;;;4.95;;
52866;SDS011;38739;53.324;6.862;2023-07-22T05:10:10;10.27;;;4.80;;
52866;SDS011;38739;53.324;6.862;2023-07-22T05:12:40;10.80;;;5.22;;
52866;SDS011;38739;53.324;6.862;2023-07-22T05:15:07;10.00;;;4.97;;
52866;SDS011;38739;53.324;6.862;2023-07-22T05:17:34;10.85;;;4.88;;
52866;SDS011;38739;53.324;6.862;2023-07-22T05:20:00;10.30;;;4.65;;
52866;SDS011;38739;53.324;6.862;2023-07-22T05:22:26;8.93;;;4.45;;
52866;SDS011;38739;53.324;6.862;2023-07-22T05:24:51;9.48;;;4.65;;
52866;SDS011;38739;53.324;6.862;2023-07-22T05:27:17;10.15;;;4.70;;
52866;SDS011;38739;53.324;6.862;2023-07-22T05:29:43;9.50;;;4.78;;
52866;SDS011;38739;53.324;6.862;2023-07-22T05:32:10;10.50;;;4.78;;
52866;SDS011;38739;53.324;6.862;2023-07-22T05:34:36;9.38;;;4.63;;
52866;SDS011;38739;53.324;6.862;2023-07-22T05:37:01;10.88;;;5.50;;
52866;SDS011;38739;53.324;6.862;2023-07-22T05:39:27;12.00;;;4.82;;
52866;SDS011;38739;53.324;6.862;2023-07-22T05:41:53;16.83;;;5.53;;
52866;SDS011;38739;53.324;6.862;2023-07-22T05:44:19;9.05;;;5.13;;
52866;SDS011;38739;53.324;6.862;2023-07-22T05:46:44;11.10;;;5.10;;
52866;SDS011;38739;53.324;6.862;2023-07-22T05:49:10;10.30;;;5.20;;
52866;SDS011;38739;53.324;6.862;2023-07-22T05:51:36;12.38;;;5.38;;
52866;SDS011;38739;53.324;6.862;2023-07-22T05:54:02;11.75;;;5.45;;
52866;SDS011;38739;53.324;6.862;2023-07-22T05:56:28;10.98;;;5.18;;
52866;SDS011;38739;53.324;6.862;2023-07-22T05:58:54;12.93;;;5.60;;
52866;SDS011;38739;53.324;6.862;2023-07-22T06:01:19;10.75;;;6.00;;
52866;SDS011;38739;53.324;6.862;2023-07-22T06:03:45;11.85;;;5.60;;
52866;SDS011;38739;53.324;6.862;2023-07-22T06:06:11;11.98;;;5.80;;
52866;SDS011;38739;53.324;6.862;2023-07-22T06:08:37;12.77;;;6.03;;
52866;SDS011;38739;53.324;6.862;2023-07-22T06:11:02;10.63;;;5.72;;
52866;SDS011;38739;53.324;6.862;2023-07-22T06:13:28;10.60;;;6.57;;
52866;SDS011;38739;53.324;6.862;2023-07-22T06:15:54;11.13;;;5.75;;
52866;SDS011;38739;53.324;6.862;2023-07-22T06:18:20;11.77;;;5.70;;
52866;SDS011;38739;53.324;6.862;2023-07-22T06:20:45;11.77;;;5.63;;
52866;SDS011;38739;53.324;6.862;2023-07-22T06:23:11;12.93;;;6.20;;
52866;SDS011;38739;53.324;6.862;2023-07-22T06:25:37;13.55;;;6.75;;
52866;SDS011;38739;53.324;6.862;2023-07-22T06:28:03;12.77;;;6.50;;
52866;SDS011;38739;53.324;6.862;2023-07-22T06:30:29;10.90;;;6.45;;
52866;SDS011;38739;53.324;6.862;2023-07-22T06:32:55;12.48;;;6.65;;
52866;SDS011;38739;53.324;6.862;2023-07-22T06:35:21;13.25;;;6.70;;
52866;SDS011;38739;53.324;6.862;2023-07-22T06:37:46;13.50;;;6.93;;
52866;SDS011;38739;53.324;6.862;2023-07-22T06:40:12;14.27;;;6.85;;
52866;SDS011;38739;53.324;6.862;2023-07-22T06:42:38;14.63;;;7.03;;
52866;SDS011;38739;53.324;6.862;2023-07-22T06:45:04;12.52;;;7.30;;
52866;SDS011;38739;53.324;6.862;2023-07-22T06:47:30;12.95;;;7.40;;
52866;SDS011;38739;53.324;6.862;2023-07-22T06:49:56;12.55;;;7.70;;
52866;SDS011;38739;53.324;6.862;2023-07-22T06:52:22;11.38;;;7.10;;
52866;SDS011;38739;53.324;6.862;2023-07-22T06:54:48;14.60;;;7.22;;
52866;SDS011;38739;53.324;6.862;2023-07-22T06:57:14;13.00;;;8.02;;
52866;SDS011;38739;53.324;6.862;2023-07-22T06:59:40;15.73;;;7.57;;
52866;SDS011;38739;53.324;6.862;2023-07-22T07:02:06;13.38;;;8.18;;
52866;SDS011;38739;53.324;6.862;2023-07-22T07:04:31;13.13;;;7.70;;
52866;SDS011;38739;53.324;6.862;2023-07-22T07:06:57;13.48;;;8.27;;
52866;SDS011;38739;53.324;6.862;2023-07-22T07:09:24;12.63;;;8.05;;
52866;SDS011;38739;53.324;6.862;2023-07-22T07:11:50;13.00;;;7.85;;
52866;SDS011;38739;53.324;6.862;2023-07-22T07:14:17;13.45;;;8.23;;
52866;SDS011;38739;53.324;6.862;2023-07-22T07:16:43;10.95;;;7.63;;
52866;SDS011;38739;53.324;6.862;2023-07-22T07:19:09;12.27;;;7.65;;
52866;SDS011;38739;53.324;6.862;2023-07-22T07:21:35;12.00;;;7.40;;
52866;SDS011;38739;53.324;6.862;2023-07-22T07:24:01;16.80;;;8.32;;
52866;SDS011;38739;53.324;6.862;2023-07-22T07:26:27;13.38;;;7.78;;
52866;SDS011;38739;53.324;6.862;2023-07-22T07:28:53;13.57;;;8.23;;
52866;SDS011;38739;53.324;6.862;2023-07-22T07:31:19;14.43;;;8.70;;
52866;SDS011;38739;53.324;6.862;2023-07-22T07:33:44;16.75;;;8.45;;
52866;SDS011;38739;53.324;6.862;2023-07-22T07:36:10;13.60;;;8.52;;
52866;SDS011;38739;53.324;6.862;2023-07-22T07:38:36;15.88;;;8.00;;
52866;SDS011;38739;53.324;6.862;2023-07-22T07:41:03;13.50;;;8.10;;
52866;SDS011;38739;53.324;6.862;2023-07-22T07:43:33;17.73;;;8.88;;
52866;SDS011;38739;53.324;6.862;2023-07-22T07:46:19;11.88;;;8.43;;
52866;SDS011;38739;53.324;6.862;2023-07-22T07:48:56;15.15;;;8.68;;
52866;SDS011;38739;53.324;6.862;2023-07-22T07:51:26;12.90;;;8.18;;
52866;SDS011;38739;53.324;6.862;2023-07-22T07:53:54;12.10;;;8.07;;
52866;SDS011;38739;53.324;6.862;2023-07-22T07:56:21;12.55;;;8.00;;
52866;SDS011;38739;53.324;6.862;2023-07-22T07:58:49;11.73;;;7.75;;
52866;SDS011;38739;53.324;6.862;2023-07-22T08:01:16;15.65;;;8.07;;
52866;SDS011;38739;53.324;6.862;2023-07-22T08:03:42;15.15;;;8.73;;
52866;SDS011;38739;53.324;6.862;2023-07-22T08:06:09;14.18;;;8.05;;
52866;SDS011;38739;53.324;6.862;2023-07-22T08:08:35;11.45;;;7.68;;
52866;SDS011;38739;53.324;6.862;2023-07-22T08:11:03;13.38;;;7.40;;
52866;SDS011;38739;53.324;6.862;2023-07-22T08:13:29;13.95;;;8.10;;
52866;SDS011;38739;53.324;6.862;2023-07-22T08:16:00;18.10;;;9.75;;
52866;SDS011;38739;53.324;6.862;2023-07-22T08:18:29;12.50;;;8.05;;
52866;SDS011;38739;53.324;6.862;2023-07-22T08:20:56;15.68;;;8.13;;
52866;SDS011;38739;53.324;6.862;2023-07-22T08:23:22;13.93;;;8.15;;
52866;SDS011;38739;53.324;6.862;2023-07-22T08:25:48;10.85;;;7.00;;
52866;SDS011;38739;53.324;6.862;2023-07-22T08:28:14;20.73;;;9.73;;
52866;SDS011;38739;53.324;6.862;2023-07-22T08:30:41;11.18;;;7.65;;
52866;SDS011;38739;53.324;6.862;2023-07-22T08:33:07;17.58;;;9.70;;
52866;SDS011;38739;53.324;6.862;2023-07-22T08:35:34;10.75;;;7.32;;
52866;SDS011;38739;53.324;6.862;2023-07-22T08:38:01;12.18;;;7.88;;
52866;SDS011;38739;53.324;6.862;2023-07-22T08:40:27;13.98;;;8.90;;
52866;SDS011;38739;53.324;6.862;2023-07-22T08:42:58;12.90;;;8.07;;
52866;SDS011;38739;53.324;6.862;2023-07-22T08:45:25;11.55;;;7.68;;
52866;SDS011;38739;53.324;6.862;2023-07-22T08:47:55;11.35;;;7.57;;
52866;SDS011;38739;53.324;6.862;2023-07-22T08:50:24;11.70;;;7.03;;
52866;SDS011;38739;53.324;6.862;2023-07-22T08:52:54;9.15;;;6.75;;
52866;SDS011;38739;53.324;6.862;2023-07-22T08:55:20;11.63;;;7.38;;
52866;SDS011;38739;53.324;6.862;2023-07-22T08:57:48;12.00;;;7.60;;
52866;SDS011;38739;53.324;6.862;2023-07-22T09:00:15;9.77;;;6.65;;
52866;SDS011;38739;53.324;6.862;2023-07-22T09:02:41;12.68;;;7.22;;
52866;SDS011;38739;53.324;6.862;2023-07-22T09:05:07;12.13;;;7.53;;
52866;SDS011;38739;53.324;6.862;2023-07-22T09:07:37;9.30;;;6.90;;
52866;SDS011;38739;53.324;6.862;2023-07-22T09:10:06;9.77;;;7.00;;
52866;SDS011;38739;53.324;6.862;2023-07-22T09:12:34;9.95;;;7.25;;
52866;SDS011;38739;53.324;6.862;2023-07-22T09:15:11;11.93;;;7.32;;
52866;SDS011;38739;53.324;6.862;2023-07-22T09:17:38;13.07;;;7.68;;
52866;SDS011;38739;53.324;6.862;2023-07-22T09:20:11;11.55;;;7.20;;
52866;SDS011;38739;53.324;6.862;2023-07-22T09:22:51;10.07;;;7.13;;
52866;SDS011;38739;53.324;6.862;2023-07-22T09:27:45;10.48;;;7.13;;
52866;SDS011;38739;53.324;6.862;2023-07-22T09:30:23;10.10;;;5.50;;
52866;SDS011;38739;53.324;6.862;2023-07-22T09:32:58;9.00;;;6.32;;
52866;SDS011;38739;53.324;6.862;2023-07-22T09:35:25;7.35;;;5.38;;
52866;SDS011;38739;53.324;6.862;2023-07-22T09:37:53;9.10;;;5.60;;
52866;SDS011;38739;53.324;6.862;2023-07-22T09:40:21;8.90;;;5.80;;
52866;SDS011;38739;53.324;6.862;2023-07-22T09:42:49;6.68;;;4.80;;
52866;SDS011;38739;53.324;6.862;2023-07-22T09:45:17;6.95;;;5.22;;
52866;SDS011;38739;53.324;6.862;2023-07-22T09:47:47;6.57;;;4.88;;
52866;SDS011;38739;53.324;6.862;2023-07-22T09:50:15;7.85;;;5.15;;
52866;SDS011;38739;53.324;6.862;2023-07-22T09:55:20;7.13;;;5.03;;
52866;SDS011;38739;53.324;6.862;2023-07-22T09:57:49;6.72;;;4.55;;
52866;SDS011;38739;53.324;6.862;2023-07-22T10:00:17;7.53;;;4.35;;
52866;SDS011;38739;53.324;6.862;2023-07-22T10:02:46;7.25;;;4.30;;
52866;SDS011;38739;53.324;6.862;2023-07-22T10:05:15;5.00;;;4.07;;
52866;SDS011;38739;53.324;6.862;2023-07-22T10:07:52;6.47;;;4.00;;
52866;SDS011;38739;53.324;6.862;2023-07-22T10:10:21;7.53;;;4.63;;
52866;SDS011;38739;53.324;6.862;2023-07-22T10:12:50;10.55;;;6.22;;
52866;SDS011;38739;53.324;6.862;2023-07-22T10:15:16;14.38;;;7.70;;
52866;SDS011;38739;53.324;6.862;2023-07-22T10:17:45;15.63;;;7.03;;
52866;SDS011;38739;53.324;6.862;2023-07-22T10:20:11;13.27;;;6.13;;
52866;SDS011;38739;53.324;6.862;2023-07-22T10:22:44;10.65;;;5.72;;
52866;SDS011;38739;53.324;6.862;2023-07-22T10:25:12;21.58;;;9.18;;
52866;SDS011;38739;53.324;6.862;2023-07-22T10:27:40;10.98;;;6.53;;
52866;SDS011;38739;53.324;6.862;2023-07-22T10:30:13;13.63;;;7.93;;
52866;SDS011;38739;53.324;6.862;2023-07-22T10:32:41;14.07;;;8.55;;
52866;SDS011;38739;53.324;6.862;2023-07-22T10:35:12;14.50;;;9.38;;
52866;SDS011;38739;53.324;6.862;2023-07-22T10:38:06;15.05;;;9.50;;
52866;SDS011;38739;53.324;6.862;2023-07-22T10:40:50;16.02;;;9.60;;
52866;SDS011;38739;53.324;6.862;2023-07-22T10:43:54;14.68;;;9.68;;
52866;SDS011;38739;53.324;6.862;2023-07-22T10:49:10;14.68;;;10.27;;
52866;SDS011;38739;53.324;6.862;2023-07-22T10:51:41;14.77;;;9.80;;
52866;SDS011;38739;53.324;6.862;2023-07-22T10:54:12;15.83;;;10.63;;
52866;SDS011;38739;53.324;6.862;2023-07-22T10:56:45;16.00;;;10.35;;
52866;SDS011;38739;53.324;6.862;2023-07-22T10:59:11;11.80;;;8.77;;
52866;SDS011;38739;53.324;6.862;2023-07-22T11:01:43;15.20;;;9.35;;
52866;SDS011;38739;53.324;6.862;2023-07-22T11:14:24;15.95;;;10.20;;
52866;SDS011;38739;53.324;6.862;2023-07-22T11:16:56;16.20;;;10.35;;
52866;SDS011;38739;53.324;6.862;2023-07-22T11:19:23;15.00;;;10.07;;
52866;SDS011;38739;53.324;6.862;2023-07-22T11:21:50;16.02;;;9.73;;
52866;SDS011;38739;53.324;6.862;2023-07-22T11:24:17;14.05;;;9.07;;
52866;SDS011;38739;53.324;6.862;2023-07-22T11:26:47;11.82;;;8.27;;
52866;SDS011;38739;53.324;6.862;2023-07-22T11:29:13;11.85;;;8.60;;
52866;SDS011;38739;53.324;6.862;2023-07-22T11:31:47;11.68;;;8.32;;
52866;SDS011;38739;53.324;6.862;2023-07-22T11:34:23;10.75;;;8.50;;
52866;SDS011;38739;53.324;6.862;2023-07-22T11:36:50;12.90;;;8.05;;
52866;SDS011;38739;53.324;6.862;2023-07-22T11:39:17;14.10;;;8.48;;
52866;SDS011;38739;53.324;6.862;2023-07-22T11:41:45;13.52;;;8.77;;
52866;SDS011;38739;53.324;6.862;2023-07-22T11:44:14;13.07;;;8.95;;
52866;SDS011;38739;53.324;6.862;2023-07-22T11:52:00;11.32;;;8.13;;
52866;SDS011;38739;53.324;6.862;2023-07-22T11:54:28;12.18;;;7.97;;
52866;SDS011;38739;53.324;6.862;2023-07-22T11:56:55;11.75;;;7.90;;
52866;SDS011;38739;53.324;6.862;2023-07-22T11:59:34;10.77;;;7.53;;
52866;SDS011;38739;53.324;6.862;2023-07-22T12:02:01;13.25;;;8.48;;
52866;SDS011;38739;53.324;6.862;2023-07-22T12:04:31;11.38;;;7.78;;
52866;SDS011;38739;53.324;6.862;2023-07-22T12:07:00;11.38;;;7.20;;
52866;SDS011;38739;53.324;6.862;2023-07-22T12:09:26;9.45;;;7.18;;
52866;SDS011;38739;53.324;6.862;2023-07-22T12:11:56;10.40;;;7.38;;
52866;SDS011;38739;53.324;6.862;2023-07-22T12:14:23;9.95;;;7.75;;
52866;SDS011;38739;53.324;6.862;2023-07-22T12:16:52;10.95;;;8.20;;
52866;SDS011;38739;53.324;6.862;2023-07-22T12:21:47;14.38;;;8.35;;
52866;SDS011;38739;53.324;6.862;2023-07-22T12:24:13;13.18;;;8.38;;
52866;SDS011;38739;53.324;6.862;2023-07-22T12:26:40;14.45;;;9.18;;
52866;SDS011;38739;53.324;6.862;2023-07-22T12:29:07;12.60;;;8.85;;
52866;SDS011;38739;53.324;6.862;2023-07-22T12:31:33;13.95;;;9.40;;
52866;SDS011;38739;53.324;6.862;2023-07-22T12:33:59;14.73;;;9.23;;
52866;SDS011;38739;53.324;6.862;2023-07-22T12:36:25;11.88;;;9.13;;
52866;SDS011;38739;53.324;6.862;2023-07-22T12:38:50;10.65;;;8.45;;
52866;SDS011;38739;53.324;6.862;2023-07-22T12:41:16;8.65;;;7.60;;
52866;SDS011;38739;53.324;6.862;2023-07-22T12:43:42;11.00;;;8.43;;
52866;SDS011;38739;53.324;6.862;2023-07-22T12:46:08;15.02;;;9.38;;
52866;SDS011;38739;53.324;6.862;2023-07-22T12:48:34;12.98;;;10.13;;
52866;SDS011;38739;53.324;6.862;2023-07-22T12:50:59;11.95;;;9.77;;
52866;SDS011;38739;53.324;6.862;2023-07-22T12:53:25;17.63;;;11.27;;
52866;SDS011;38739;53.324;6.862;2023-07-22T12:55:51;13.93;;;10.30;;
52866;SDS011;38739;53.324;6.862;2023-07-22T12:58:17;13.85;;;11.20;;
52866;SDS011;38739;53.324;6.862;2023-07-22T13:00:43;14.45;;;10.90;;
52866;SDS011;38739;53.324;6.862;2023-07-22T13:03:08;14.52;;;10.73;;
52866;SDS011;38739;53.324;6.862;2023-07-22T13:05:34;14.27;;;11.60;;
52866;SDS011;38739;53.324;6.862;2023-07-22T13:08:00;14.68;;;12.07;;
52866;SDS011;38739;53.324;6.862;2023-07-22T13:10:29;15.35;;;12.50;;
52866;SDS011;38739;53.324;6.862;2023-07-22T13:12:56;14.88;;;11.75;;
52866;SDS011;38739;53.324;6.862;2023-07-22T13:15:22;14.82;;;11.45;;
52866;SDS011;38739;53.324;6.862;2023-07-22T13:17:49;16.40;;;12.20;;
52866;SDS011;38739;53.324;6.862;2023-07-22T13:20:15;16.33;;;12.25;;
52866;SDS011;38739;53.324;6.862;2023-07-22T13:22:40;17.10;;;13.10;;
52866;SDS011;38739;53.324;6.862;2023-07-22T13:25:06;17.63;;;12.52;;
52866;SDS011;38739;53.324;6.862;2023-07-22T13:27:34;15.63;;;11.65;;
52866;SDS011;38739;53.324;6.862;2023-07-22T13:30:00;16.08;;;11.73;;
52866;SDS011;38739;53.324;6.862;2023-07-22T13:32:26;15.75;;;11.05;;
52866;SDS011;38739;53.324;6.862;2023-07-22T13:34:52;15.75;;;11.65;;
52866;SDS011;38739;53.324;6.862;2023-07-22T13:37:18;14.20;;;10.57;;
52866;SDS011;38739;53.324;6.862;2023-07-22T13:39:43;13.63;;;9.93;;
52866;SDS011;38739;53.324;6.862;2023-07-22T13:42:10;14.57;;;10.73;;
52866;SDS011;38739;53.324;6.862;2023-07-22T13:44:35;14.02;;;9.95;;
52866;SDS011;38739;53.324;6.862;2023-07-22T13:47:01;16.20;;;9.98;;
52866;SDS011;38739;53.324;6.862;2023-07-22T13:49:27;13.75;;;10.00;;
52866;SDS011;38739;53.324;6.862;2023-07-22T13:51:52;11.73;;;8.65;;
52866;SDS011;38739;53.324;6.862;2023-07-22T13:54:18;11.02;;;8.20;;
52866;SDS011;38739;53.324;6.862;2023-07-22T13:56:45;11.63;;;8.55;;
52866;SDS011;38739;53.324;6.862;2023-07-22T13:59:12;11.43;;;8.63;;
52866;SDS011;38739;53.324;6.862;2023-07-22T14:01:39;11.52;;;8.70;;
52866;SDS011;38739;53.324;6.862;2023-07-22T14:04:04;11.73;;;8.13;;
52866;SDS011;38739;53.324;6.862;2023-07-22T14:06:30;10.88;;;8.35;;
52866;SDS011;38739;53.324;6.862;2023-07-22T14:08:57;11.05;;;8.60;;
52866;SDS011;38739;53.324;6.862;2023-07-22T14:11:23;12.25;;;9.25;;
52866;SDS011;38739;53.324;6.862;2023-07-22T14:13:49;12.00;;;9.07;;
52866;SDS011;38739;53.324;6.862;2023-07-22T14:16:17;10.40;;;8.90;;
52866;SDS011;38739;53.324;6.862;2023-07-22T14:18:43;11.77;;;8.98;;
52866;SDS011;38739;53.324;6.862;2023-07-22T14:21:09;10.93;;;9.60;;
52866;SDS011;38739;53.324;6.862;2023-07-22T14:23:36;11.25;;;9.70;;
52866;SDS011;38739;53.324;6.862;2023-07-22T14:26:02;12.05;;;10.25;;
52866;SDS011;38739;53.324;6.862;2023-07-22T14:28:28;12.48;;;10.35;;
52866;SDS011;38739;53.324;6.862;2023-07-22T14:30:56;12.90;;;10.18;;
52866;SDS011;38739;53.324;6.862;2023-07-22T14:33:21;13.57;;;10.52;;
52866;SDS011;38739;53.324;6.862;2023-07-22T14:35:47;11.75;;;10.07;;
52866;SDS011;38739;53.324;6.862;2023-07-22T14:38:15;11.20;;;9.77;;
52866;SDS011;38739;53.324;6.862;2023-07-22T14:40:41;15.63;;;9.98;;
52866;SDS011;38739;53.324;6.862;2023-07-22T14:43:12;12.57;;;9.50;;
52866;SDS011;38739;53.324;6.862;2023-07-22T14:45:37;13.35;;;10.20;;
52866;SDS011;38739;53.324;6.862;2023-07-22T14:48:03;12.13;;;10.52;;
52866;SDS011;38739;53.324;6.862;2023-07-22T14:50:30;11.23;;;9.63;;
52866;SDS011;38739;53.324;6.862;2023-07-22T14:52:58;15.55;;;10.48;;
52866;SDS011;38739;53.324;6.862;2023-07-22T14:55:25;14.75;;;11.07;;
52866;SDS011;38739;53.324;6.862;2023-07-22T14:57:51;17.23;;;11.38;;
52866;SDS011;38739;53.324;6.862;2023-07-22T15:00:16;11.88;;;8.77;;
52866;SDS011;38739;53.324;6.862;2023-07-22T15:02:43;13.25;;;6.65;;